sensor_id;sensor_type;location;lat;lon;timestamp;temperature;humidity
14359;DHT22;7263;49.418;11.064;2023-08-30T00:01:15;12.90;99.90
14359;DHT22;7263;49.418;11.064;2023-08-30T00:03:49;12.20;99.90
14359;DHT22;7263;49.418;11.064;2023-08-30T00:06:18;12.20;99.90
14359;DHT22;7263;49.418;11.064;2023-08-30T00:08:52;12.20;99.90
14359;DHT22;7263;49.418;11.064;2023-08-30T00:11:22;12.20;99.90
14359;DHT22;7263;49.418;11.064;2023-08-30T00:14:01;12.20;99.90
14359;DHT22;7263;49.418;11.064;2023-08-30T00:16:42;12.20;99.90
14359;DHT22;7263;49.418;11.064;2023-08-30T00:19:15;12.30;99.90
14359;DHT22;7263;49.418;11.064;2023-08-30T00:21:41;12.20;99.90
14359;DHT22;7263;49.418;11.064;2023-08-30T00:24:15;12.20;99.90
14359;DHT22;7263;49.418;11.064;2023-08-30T00:26:47;12.20;99.90
14359;DHT22;7263;49.418;11.064;2023-08-30T00:29:29;12.20;99.90
14359;DHT22;7263;49.418;11.064;2023-08-30T00:31:58;12.10;99.90
14359;DHT22;7263;49.418;11.064;2023-08-30T00:34:25;12.10;99.90
14359;DHT22;7263;49.418;11.064;2023-08-30T00:36:53;12.00;99.90
14359;DHT22;7263;49.418;11.064;2023-08-30T00:39:20;12.00;99.90
14359;DHT22;7263;49.418;11.064;2023-08-30T00:41:54;12.00;99.90
14359;DHT22;7263;49.418;11.064;2023-08-30T00:44:35;11.90;99.90
14359;DHT22;7263;49.418;11.064;2023-08-30T00:47:05;11.90;99.90
14359;DHT22;7263;49.418;11.064;2023-08-30T00:49:38;11.80;99.90
14359;DHT22;7263;49.418;11.064;2023-08-30T00:52:12;11.80;99.90
14359;DHT22;7263;49.418;11.064;2023-08-30T00:54:42;11.80;99.90
14359;DHT22;7263;49.418;11.064;2023-08-30T00:57:12;11.70;99.90
14359;DHT22;7263;49.418;11.064;2023-08-30T00:59:52;11.70;99.90
14359;DHT22;7263;49.418;11.064;2023-08-30T01:02:25;11.60;99.90
14359;DHT22;7263;49.418;11.064;2023-08-30T01:04:54;11.60;99.90
14359;DHT22;7263;49.418;11.064;2023-08-30T01:07:34;11.60;99.90
14359;DHT22;7263;49.418;11.064;2023-08-30T01:10:01;11.50;99.90
14359;DHT22;7263;49.418;11.064;2023-08-30T01:12:40;11.50;99.90
14359;DHT22;7263;49.418;11.064;2023-08-30T01:15:13;11.50;99.90
14359;DHT22;7263;49.418;11.064;2023-08-30T01:17:50;11.50;99.90
14359;DHT22;7263;49.418;11.064;2023-08-30T01:20:25;11.50;99.90
14359;DHT22;7263;49.418;11.064;2023-08-30T01:22:59;11.50;99.90
14359;DHT22;7263;49.418;11.064;2023-08-30T01:25:48;11.50;99.90
14359;DHT22;7263;49.418;11.064;2023-08-30T01:28:37;11.60;99.90
14359;DHT22;7263;49.418;11.064;2023-08-30T01:31:06;11.60;99.90
14359;DHT22;7263;49.418;11.064;2023-08-30T01:33:38;11.60;99.90
14359;DHT22;7263;49.418;11.064;2023-08-30T01:36:05;11.70;99.90
14359;DHT22;7263;49.418;11.064;2023-08-30T01:38:35;11.60;99.90
14359;DHT22;7263;49.418;11.064;2023-08-30T01:41:04;11.70;99.90
14359;DHT22;7263;49.418;11.064;2023-08-30T01:43:35;11.70;99.90
14359;DHT22;7263;49.418;11.064;2023-08-30T01:46:03;11.80;99.90
14359;DHT22;7263;49.418;11.064;2023-08-30T01:48:34;11.90;99.90
14359;DHT22;7263;49.418;11.064;2023-08-30T01:51:05;11.90;99.90
14359;DHT22;7263;49.418;11.064;2023-08-30T01:53:48;12.00;99.90
14359;DHT22;7263;49.418;11.064;2023-08-30T01:56:15;12.00;99.90
14359;DHT22;7263;49.418;11.064;2023-08-30T01:58:54;12.00;99.90
14359;DHT22;7263;49.418;11.064;2023-08-30T02:01:30;12.00;99.90
14359;DHT22;7263;49.418;11.064;2023-08-30T02:04:00;12.10;99.90
14359;DHT22;7263;49.418;11.064;2023-08-30T02:06:32;12.10;99.90
14359;DHT22;7263;49.418;11.064;2023-08-30T02:09:07;12.10;99.90
14359;DHT22;7263;49.418;11.064;2023-08-30T02:11:48;12.10;99.90
14359;DHT22;7263;49.418;11.064;2023-08-30T02:14:18;12.10;99.90
14359;DHT22;7263;49.418;11.064;2023-08-30T02:16:47;12.00;99.90
14359;DHT22;7263;49.418;11.064;2023-08-30T02:19:24;12.10;99.90
14359;DHT22;7263;49.418;11.064;2023-08-30T02:22:05;12.10;99.90
14359;DHT22;7263;49.418;11.064;2023-08-30T02:24:32;12.10;99.90
14359;DHT22;7263;49.418;11.064;2023-08-30T02:27:04;12.00;99.90
14359;DHT22;7263;49.418;11.064;2023-08-30T02:29:41;12.00;99.90
14359;DHT22;7263;49.418;11.064;2023-08-30T02:32:16;12.00;99.90
14359;DHT22;7263;49.418;11.064;2023-08-30T02:34:49;12.10;99.90
14359;DHT22;7263;49.418;11.064;2023-08-30T02:37:27;12.00;99.90
14359;DHT22;7263;49.418;11.064;2023-08-30T02:39:57;12.00;99.90
14359;DHT22;7263;49.418;11.064;2023-08-30T02:42:26;12.00;99.90
14359;DHT22;7263;49.418;11.064;2023-08-30T02:45:04;12.00;99.90
14359;DHT22;7263;49.418;11.064;2023-08-30T02:47:40;12.00;99.90
14359;DHT22;7263;49.418;11.064;2023-08-30T02:50:13;12.00;99.90
14359;DHT22;7263;49.418;11.064;2023-08-30T02:52:43;11.90;99.90
14359;DHT22;7263;49.418;11.064;2023-08-30T02:55:10;12.00;99.90
14359;DHT22;7263;49.418;11.064;2023-08-30T02:57:40;12.00;99.90
14359;DHT22;7263;49.418;11.064;2023-08-30T03:00:12;12.00;99.90
14359;DHT22;7263;49.418;11.064;2023-08-30T03:02:42;12.00;99.90
14359;DHT22;7263;49.418;11.064;2023-08-30T03:05:11;11.90;99.90
14359;DHT22;7263;49.418;11.064;2023-08-30T03:07:40;11.90;99.90
14359;DHT22;7263;49.418;11.064;2023-08-30T03:10:11;11.90;99.90
14359;DHT22;7263;49.418;11.064;2023-08-30T03:12:43;11.90;99.90
14359;DHT22;7263;49.418;11.064;2023-08-30T03:15:30;11.90;99.90
14359;DHT22;7263;49.418;11.064;2023-08-30T03:17:57;11.90;99.90
14359;DHT22;7263;49.418;11.064;2023-08-30T03:20:32;11.90;99.90
14359;DHT22;7263;49.418;11.064;2023-08-30T03:22:59;11.90;99.90
14359;DHT22;7263;49.418;11.064;2023-08-30T03:25:29;11.90;99.90
14359;DHT22;7263;49.418;11.064;2023-08-30T03:28:06;11.80;99.90
14359;DHT22;7263;49.418;11.064;2023-08-30T03:30:34;11.90;99.90
14359;DHT22;7263;49.418;11.064;2023-08-30T03:33:17;11.90;99.90
14359;DHT22;7263;49.418;11.064;2023-08-30T03:35:50;11.90;99.90
14359;DHT22;7263;49.418;11.064;2023-08-30T03:38:19;11.90;99.90
14359;DHT22;7263;49.418;11.064;2023-08-30T03:40:53;11.90;99.90
14359;DHT22;7263;49.418;11.064;2023-08-30T03:43:19;11.90;99.90
14359;DHT22;7263;49.418;11.064;2023-08-30T03:45:50;11.90;99.90
14359;DHT22;7263;49.418;11.064;2023-08-30T03:48:20;11.90;99.90
14359;DHT22;7263;49.418;11.064;2023-08-30T03:50:57;11.90;99.90
14359;DHT22;7263;49.418;11.064;2023-08-30T03:53:25;11.90;99.90
14359;DHT22;7263;49.418;11.064;2023-08-30T03:55:51;11.80;99.90
14359;DHT22;7263;49.418;11.064;2023-08-30T03:58:19;11.90;99.90
14359;DHT22;7263;49.418;11.064;2023-08-30T04:00:50;11.80;99.90
14359;DHT22;7263;49.418;11.064;2023-08-30T04:03:17;11.80;99.90
14359;DHT22;7263;49.418;11.064;2023-08-30T04:05:59;11.90;99.90
14359;DHT22;7263;49.418;11.064;2023-08-30T04:08:31;11.90;99.90
14359;DHT22;7263;49.418;11.064;2023-08-30T04:11:04;11.90;99.90
14359;DHT22;7263;49.418;11.064;2023-08-30T04:13:33;11.80;99.90
14359;DHT22;7263;49.418;11.064;2023-08-30T04:16:04;11.80;99.90
14359;DHT22;7263;49.418;11.064;2023-08-30T04:18:33;11.70;99.90
14359;DHT22;7263;49.418;11.064;2023-08-30T04:21:00;11.70;99.90
14359;DHT22;7263;49.418;11.064;2023-08-30T04:23:28;11.70;99.90
14359;DHT22;7263;49.418;11.064;2023-08-30T04:26:00;11.70;99.90
14359;DHT22;7263;49.418;11.064;2023-08-30T04:28:29;11.70;99.90
14359;DHT22;7263;49.418;11.064;2023-08-30T04:31:07;11.70;99.90
14359;DHT22;7263;49.418;11.064;2023-08-30T04:33:34;11.70;99.90
14359;DHT22;7263;49.418;11.064;2023-08-30T04:36:04;11.70;99.90
14359;DHT22;7263;49.418;11.064;2023-08-30T04:38:30;11.70;99.90
14359;DHT22;7263;49.418;11.064;2023-08-30T04:40:59;11.70;99.90
14359;DHT22;7263;49.418;11.064;2023-08-30T04:43:33;11.70;99.90
14359;DHT22;7263;49.418;11.064;2023-08-30T04:45:59;11.70;99.90
14359;DHT22;7263;49.418;11.064;2023-08-30T04:48:28;11.10;99.90
14359;DHT22;7263;49.418;11.064;2023-08-30T04:51:01;11.10;99.90
14359;DHT22;7263;49.418;11.064;2023-08-30T04:53:28;11.70;99.90
14359;DHT22;7263;49.418;11.064;2023-08-30T04:56:09;11.80;99.90
14359;DHT22;7263;49.418;11.064;2023-08-30T04:58:39;11.90;99.90
14359;DHT22;7263;49.418;11.064;2023-08-30T05:01:06;11.90;99.90
14359;DHT22;7263;49.418;11.064;2023-08-30T05:03:35;11.90;99.90
14359;DHT22;7263;49.418;11.064;2023-08-30T05:06:02;12.00;99.90
14359;DHT22;7263;49.418;11.064;2023-08-30T05:08:32;12.00;99.90
14359;DHT22;7263;49.418;11.064;2023-08-30T05:11:04;12.10;99.90
14359;DHT22;7263;49.418;11.064;2023-08-30T05:13:44;12.10;99.90
14359;DHT22;7263;49.418;11.064;2023-08-30T05:16:13;12.10;99.90
14359;DHT22;7263;49.418;11.064;2023-08-30T05:18:46;12.10;99.90
14359;DHT22;7263;49.418;11.064;2023-08-30T05:21:14;12.10;99.90
14359;DHT22;7263;49.418;11.064;2023-08-30T05:23:41;12.10;99.90
14359;DHT22;7263;49.418;11.064;2023-08-30T05:26:08;12.10;99.90
14359;DHT22;7263;49.418;11.064;2023-08-30T05:28:38;12.20;99.90
14359;DHT22;7263;49.418;11.064;2023-08-30T05:31:07;12.20;99.90
14359;DHT22;7263;49.418;11.064;2023-08-30T05:33:34;12.30;99.90
14359;DHT22;7263;49.418;11.064;2023-08-30T05:36:03;12.30;99.90
14359;DHT22;7263;49.418;11.064;2023-08-30T05:38:43;12.40;99.90
14359;DHT22;7263;49.418;11.064;2023-08-30T05:41:13;12.40;99.90
14359;DHT22;7263;49.418;11.064;2023-08-30T05:43:42;12.50;99.90
14359;DHT22;7263;49.418;11.064;2023-08-30T05:46:16;12.60;99.90
14359;DHT22;7263;49.418;11.064;2023-08-30T05:48:46;12.70;99.90
14359;DHT22;7263;49.418;11.064;2023-08-30T05:51:14;12.80;99.90
14359;DHT22;7263;49.418;11.064;2023-08-30T05:53:53;12.90;99.90
14359;DHT22;7263;49.418;11.064;2023-08-30T05:56:23;13.10;99.90
14359;DHT22;7263;49.418;11.064;2023-08-30T05:58:50;13.20;99.90
14359;DHT22;7263;49.418;11.064;2023-08-30T06:01:18;13.30;99.90
14359;DHT22;7263;49.418;11.064;2023-08-30T06:03:58;13.30;99.90
14359;DHT22;7263;49.418;11.064;2023-08-30T06:06:27;13.50;99.90
14359;DHT22;7263;49.418;11.064;2023-08-30T06:08:58;13.60;99.90
14359;DHT22;7263;49.418;11.064;2023-08-30T06:11:25;13.80;99.90
14359;DHT22;7263;49.418;11.064;2023-08-30T06:13:53;14.00;99.90
14359;DHT22;7263;49.418;11.064;2023-08-30T06:16:27;14.10;99.90
14359;DHT22;7263;49.418;11.064;2023-08-30T06:18:57;14.30;99.90
14359;DHT22;7263;49.418;11.064;2023-08-30T06:21:26;14.40;99.90
14359;DHT22;7263;49.418;11.064;2023-08-30T06:23:53;14.40;99.90
14359;DHT22;7263;49.418;11.064;2023-08-30T06:26:20;14.50;99.90
14359;DHT22;7263;49.418;11.064;2023-08-30T06:28:47;14.50;99.90
14359;DHT22;7263;49.418;11.064;2023-08-30T06:31:14;14.50;99.90
14359;DHT22;7263;49.418;11.064;2023-08-30T06:33:40;14.40;99.90
14359;DHT22;7263;49.418;11.064;2023-08-30T06:36:07;14.50;99.90
14359;DHT22;7263;49.418;11.064;2023-08-30T06:38:52;14.60;99.90
14359;DHT22;7263;49.418;11.064;2023-08-30T06:41:22;14.70;99.90
14359;DHT22;7263;49.418;11.064;2023-08-30T06:43:49;14.70;99.90
14359;DHT22;7263;49.418;11.064;2023-08-30T06:46:16;14.90;99.90
14359;DHT22;7263;49.418;11.064;2023-08-30T06:48:48;15.00;99.90
14359;DHT22;7263;49.418;11.064;2023-08-30T06:51:14;15.20;99.90
14359;DHT22;7263;49.418;11.064;2023-08-30T06:53:56;15.40;99.90
14359;DHT22;7263;49.418;11.064;2023-08-30T06:56:29;15.60;99.90
14359;DHT22;7263;49.418;11.064;2023-08-30T06:59:03;15.80;99.90
14359;DHT22;7263;49.418;11.064;2023-08-30T07:01:29;15.90;99.90
14359;DHT22;7263;49.418;11.064;2023-08-30T07:03:56;16.00;99.90
14359;DHT22;7263;49.418;11.064;2023-08-30T07:06:23;16.10;99.90
14359;DHT22;7263;49.418;11.064;2023-08-30T07:08:56;16.20;99.90
14359;DHT22;7263;49.418;11.064;2023-08-30T07:11:26;16.20;99.90
14359;DHT22;7263;49.418;11.064;2023-08-30T07:13:56;16.30;99.90
14359;DHT22;7263;49.418;11.064;2023-08-30T07:16:22;16.40;99.90
14359;DHT22;7263;49.418;11.064;2023-08-30T07:18:49;16.60;99.90
14359;DHT22;7263;49.418;11.064;2023-08-30T07:21:24;16.80;99.90
14359;DHT22;7263;49.418;11.064;2023-08-30T07:24:00;17.00;99.90
14359;DHT22;7263;49.418;11.064;2023-08-30T07:26:29;17.20;99.90
14359;DHT22;7263;49.418;11.064;2023-08-30T07:28:59;17.20;99.90
14359;DHT22;7263;49.418;11.064;2023-08-30T07:31:25;17.10;99.90
14359;DHT22;7263;49.418;11.064;2023-08-30T07:33:55;17.10;99.90
14359;DHT22;7263;49.418;11.064;2023-08-30T07:36:26;17.10;99.90
14359;DHT22;7263;49.418;11.064;2023-08-30T07:39:03;17.10;99.90
14359;DHT22;7263;49.418;11.064;2023-08-30T07:41:33;17.10;99.90
14359;DHT22;7263;49.418;11.064;2023-08-30T07:44:00;17.00;99.90
14359;DHT22;7263;49.418;11.064;2023-08-30T07:46:28;17.50;99.90
14359;DHT22;7263;49.418;11.064;2023-08-30T07:48:58;17.30;99.90
14359;DHT22;7263;49.418;11.064;2023-08-30T07:51:36;17.70;99.90
14359;DHT22;7263;49.418;11.064;2023-08-30T07:54:12;18.20;99.90
14359;DHT22;7263;49.418;11.064;2023-08-30T07:56:41;18.60;99.90
14359;DHT22;7263;49.418;11.064;2023-08-30T07:59:08;18.50;99.90
14359;DHT22;7263;49.418;11.064;2023-08-30T08:01:37;18.20;99.90
14359;DHT22;7263;49.418;11.064;2023-08-30T08:04:07;17.90;99.90
14359;DHT22;7263;49.418;11.064;2023-08-30T08:06:44;17.70;99.90
14359;DHT22;7263;49.418;11.064;2023-08-30T08:09:12;17.60;99.90
14359;DHT22;7263;49.418;11.064;2023-08-30T08:12:02;17.40;99.90
14359;DHT22;7263;49.418;11.064;2023-08-30T08:14:35;17.60;99.90
14359;DHT22;7263;49.418;11.064;2023-08-30T08:17:02;18.00;99.90
14359;DHT22;7263;49.418;11.064;2023-08-30T08:19:33;18.50;99.90
14359;DHT22;7263;49.418;11.064;2023-08-30T08:22:04;19.10;99.90
14359;DHT22;7263;49.418;11.064;2023-08-30T08:24:35;19.20;99.90
14359;DHT22;7263;49.418;11.064;2023-08-30T08:27:05;19.20;99.90
14359;DHT22;7263;49.418;11.064;2023-08-30T08:29:32;19.50;99.90
14359;DHT22;7263;49.418;11.064;2023-08-30T08:32:08;19.90;99.90
14359;DHT22;7263;49.418;11.064;2023-08-30T08:34:34;19.80;99.90
14359;DHT22;7263;49.418;11.064;2023-08-30T08:37:07;19.90;99.90
14359;DHT22;7263;49.418;11.064;2023-08-30T08:39:38;19.70;99.90
14359;DHT22;7263;49.418;11.064;2023-08-30T08:42:07;20.20;99.90
14359;DHT22;7263;49.418;11.064;2023-08-30T08:44:37;20.40;99.90
14359;DHT22;7263;49.418;11.064;2023-08-30T08:47:17;20.50;99.90
14359;DHT22;7263;49.418;11.064;2023-08-30T08:50:06;20.40;99.90
14359;DHT22;7263;49.418;11.064;2023-08-30T08:52:33;20.30;99.90
14359;DHT22;7263;49.418;11.064;2023-08-30T08:55:04;20.50;99.90
14359;DHT22;7263;49.418;11.064;2023-08-30T08:57:34;21.00;99.90
14359;DHT22;7263;49.418;11.064;2023-08-30T09:00:01;21.70;99.90
14359;DHT22;7263;49.418;11.064;2023-08-30T09:02:31;21.70;99.90
14359;DHT22;7263;49.418;11.064;2023-08-30T09:05:04;21.50;99.90
14359;DHT22;7263;49.418;11.064;2023-08-30T09:07:44;21.00;99.90
14359;DHT22;7263;49.418;11.064;2023-08-30T09:10:18;20.50;99.90
14359;DHT22;7263;49.418;11.064;2023-08-30T09:12:44;20.50;99.90
14359;DHT22;7263;49.418;11.064;2023-08-30T09:15:11;20.50;99.90
14359;DHT22;7263;49.418;11.064;2023-08-30T09:17:41;20.50;99.90
14359;DHT22;7263;49.418;11.064;2023-08-30T09:20:14;20.30;99.90
14359;DHT22;7263;49.418;11.064;2023-08-30T09:22:46;19.90;99.90
14359;DHT22;7263;49.418;11.064;2023-08-30T09:25:34;19.70;99.90
14359;DHT22;7263;49.418;11.064;2023-08-30T09:28:09;19.70;99.90
14359;DHT22;7263;49.418;11.064;2023-08-30T09:30:36;19.70;99.90
14359;DHT22;7263;49.418;11.064;2023-08-30T09:33:03;19.60;99.90
14359;DHT22;7263;49.418;11.064;2023-08-30T09:35:34;19.60;99.90
14359;DHT22;7263;49.418;11.064;2023-08-30T09:38:16;19.80;99.90
14359;DHT22;7263;49.418;11.064;2023-08-30T09:40:45;20.00;99.90
14359;DHT22;7263;49.418;11.064;2023-08-30T09:43:12;20.10;99.90
14359;DHT22;7263;49.418;11.064;2023-08-30T09:45:44;20.30;99.90
14359;DHT22;7263;49.418;11.064;2023-08-30T09:48:11;20.50;99.90
14359;DHT22;7263;49.418;11.064;2023-08-30T09:50:44;20.70;99.90
14359;DHT22;7263;49.418;11.064;2023-08-30T09:53:17;20.80;99.90
14359;DHT22;7263;49.418;11.064;2023-08-30T09:55:50;20.90;99.90
14359;DHT22;7263;49.418;11.064;2023-08-30T09:58:24;21.10;99.90
14359;DHT22;7263;49.418;11.064;2023-08-30T10:00:53;21.00;99.90
14359;DHT22;7263;49.418;11.064;2023-08-30T10:03:21;20.90;99.90
14359;DHT22;7263;49.418;11.064;2023-08-30T10:05:48;20.90;99.90
14359;DHT22;7263;49.418;11.064;2023-08-30T10:08:21;21.10;99.90
14359;DHT22;7263;49.418;11.064;2023-08-30T10:10:58;21.30;99.90
14359;DHT22;7263;49.418;11.064;2023-08-30T10:13:29;21.40;99.90
14359;DHT22;7263;49.418;11.064;2023-08-30T10:16:00;21.40;99.90
14359;DHT22;7263;49.418;11.064;2023-08-30T10:18:29;21.40;99.90
14359;DHT22;7263;49.418;11.064;2023-08-30T10:20:59;21.30;99.90
14359;DHT22;7263;49.418;11.064;2023-08-30T10:23:30;21.20;99.90
14359;DHT22;7263;49.418;11.064;2023-08-30T10:26:02;21.20;99.90
14359;DHT22;7263;49.418;11.064;2023-08-30T10:28:31;21.30;99.90
14359;DHT22;7263;49.418;11.064;2023-08-30T10:30:58;21.40;99.90
14359;DHT22;7263;49.418;11.064;2023-08-30T10:33:30;21.70;99.90
14359;DHT22;7263;49.418;11.064;2023-08-30T10:36:05;22.00;99.90
14359;DHT22;7263;49.418;11.064;2023-08-30T10:38:34;22.10;99.90
14359;DHT22;7263;49.418;11.064;2023-08-30T10:41:13;22.00;99.90
14359;DHT22;7263;49.418;11.064;2023-08-30T10:43:56;22.10;99.90
14359;DHT22;7263;49.418;11.064;2023-08-30T10:46:30;22.10;99.90
14359;DHT22;7263;49.418;11.064;2023-08-30T10:49:13;22.50;99.90
14359;DHT22;7263;49.418;11.064;2023-08-30T10:51:59;22.50;99.90
14359;DHT22;7263;49.418;11.064;2023-08-30T10:54:40;22.50;99.90
14359;DHT22;7263;49.418;11.064;2023-08-30T10:57:25;22.70;99.90
14359;DHT22;7263;49.418;11.064;2023-08-30T11:00:11;23.00;99.90
14359;DHT22;7263;49.418;11.064;2023-08-30T11:02:51;23.10;99.90
14359;DHT22;7263;49.418;11.064;2023-08-30T11:05:22;23.00;99.90
14359;DHT22;7263;49.418;11.064;2023-08-30T11:07:51;22.90;99.90
14359;DHT22;7263;49.418;11.064;2023-08-30T11:10:19;22.60;99.90
14359;DHT22;7263;49.418;11.064;2023-08-30T11:13:01;22.30;99.90
14359;DHT22;7263;49.418;11.064;2023-08-30T11:15:30;22.40;99.90
14359;DHT22;7263;49.418;11.064;2023-08-30T11:18:06;22.80;99.90
14359;DHT22;7263;49.418;11.064;2023-08-30T11:20:33;23.00;99.90
14359;DHT22;7263;49.418;11.064;2023-08-30T11:23:09;23.00;99.90
14359;DHT22;7263;49.418;11.064;2023-08-30T11:25:36;23.10;99.90
14359;DHT22;7263;49.418;11.064;2023-08-30T11:28:05;23.40;99.90
14359;DHT22;7263;49.418;11.064;2023-08-30T11:30:32;22.90;99.90
14359;DHT22;7263;49.418;11.064;2023-08-30T11:33:07;22.80;99.90
14359;DHT22;7263;49.418;11.064;2023-08-30T11:35:34;22.90;99.90
14359;DHT22;7263;49.418;11.064;2023-08-30T11:38:01;22.90;99.90
14359;DHT22;7263;49.418;11.064;2023-08-30T11:40:32;22.90;99.90
14359;DHT22;7263;49.418;11.064;2023-08-30T11:43:02;22.70;99.90
14359;DHT22;7263;49.418;11.064;2023-08-30T11:45:36;22.70;99.90
14359;DHT22;7263;49.418;11.064;2023-08-30T11:48:04;22.70;99.90
14359;DHT22;7263;49.418;11.064;2023-08-30T11:50:31;22.70;99.90
14359;DHT22;7263;49.418;11.064;2023-08-30T11:53:05;22.40;99.90
14359;DHT22;7263;49.418;11.064;2023-08-30T11:55:32;22.30;99.90
14359;DHT22;7263;49.418;11.064;2023-08-30T11:58:00;22.10;99.90
14359;DHT22;7263;49.418;11.064;2023-08-30T12:00:28;21.80;99.90
14359;DHT22;7263;49.418;11.064;2023-08-30T12:03:01;21.50;99.90
14359;DHT22;7263;49.418;11.064;2023-08-30T12:05:27;21.20;99.90
14359;DHT22;7263;49.418;11.064;2023-08-30T12:08:00;20.90;99.90
14359;DHT22;7263;49.418;11.064;2023-08-30T12:10:29;20.70;99.90
14359;DHT22;7263;49.418;11.064;2023-08-30T12:12:57;20.50;99.90
14359;DHT22;7263;49.418;11.064;2023-08-30T12:15:26;20.30;99.90
14359;DHT22;7263;49.418;11.064;2023-08-30T12:18:09;20.00;99.90
14359;DHT22;7263;49.418;11.064;2023-08-30T12:20:36;19.90;99.90
14359;DHT22;7263;49.418;11.064;2023-08-30T12:23:06;19.70;99.90
14359;DHT22;7263;49.418;11.064;2023-08-30T12:25:32;19.50;99.90
14359;DHT22;7263;49.418;11.064;2023-08-30T12:28:08;19.40;99.90
14359;DHT22;7263;49.418;11.064;2023-08-30T12:30:40;19.50;99.90
14359;DHT22;7263;49.418;11.064;2023-08-30T12:33:11;19.50;99.90
14359;DHT22;7263;49.418;11.064;2023-08-30T12:35:46;19.50;99.90
14359;DHT22;7263;49.418;11.064;2023-08-30T12:38:16;19.60;99.90
14359;DHT22;7263;49.418;11.064;2023-08-30T12:40:47;19.80;99.90
14359;DHT22;7263;49.418;11.064;2023-08-30T12:43:22;19.60;99.90
14359;DHT22;7263;49.418;11.064;2023-08-30T12:45:55;19.70;99.90
14359;DHT22;7263;49.418;11.064;2023-08-30T12:48:26;19.60;99.90
14359;DHT22;7263;49.418;11.064;2023-08-30T12:50:59;19.90;99.90
14359;DHT22;7263;49.418;11.064;2023-08-30T12:53:26;19.90;99.90
14359;DHT22;7263;49.418;11.064;2023-08-30T12:55:55;20.00;99.90
14359;DHT22;7263;49.418;11.064;2023-08-30T12:58:23;20.10;99.90
14359;DHT22;7263;49.418;11.064;2023-08-30T13:00:53;20.10;99.90
14359;DHT22;7263;49.418;11.064;2023-08-30T13:03:22;20.10;99.90
14359;DHT22;7263;49.418;11.064;2023-08-30T13:05:53;20.00;99.90
14359;DHT22;7263;49.418;11.064;2023-08-30T13:08:20;20.00;99.90
14359;DHT22;7263;49.418;11.064;2023-08-30T13:10:47;20.00;99.90
14359;DHT22;7263;49.418;11.064;2023-08-30T13:13:15;20.10;99.90
14359;DHT22;7263;49.418;11.064;2023-08-30T13:15:42;20.10;99.90
14359;DHT22;7263;49.418;11.064;2023-08-30T13:18:11;20.10;99.90
14359;DHT22;7263;49.418;11.064;2023-08-30T13:20:40;20.20;99.90
14359;DHT22;7263;49.418;11.064;2023-08-30T13:23:11;20.30;99.90
14359;DHT22;7263;49.418;11.064;2023-08-30T13:25:39;20.40;99.90
14359;DHT22;7263;49.418;11.064;2023-08-30T13:28:06;20.50;99.90
14359;DHT22;7263;49.418;11.064;2023-08-30T13:30:51;20.40;99.90
14359;DHT22;7263;49.418;11.064;2023-08-30T13:33:22;20.10;99.90
14359;DHT22;7263;49.418;11.064;2023-08-30T13:35:51;20.00;99.90
14359;DHT22;7263;49.418;11.064;2023-08-30T13:38:34;20.00;99.90
14359;DHT22;7263;49.418;11.064;2023-08-30T13:41:13;19.90;99.90
14359;DHT22;7263;49.418;11.064;2023-08-30T13:43:40;19.80;99.90
14359;DHT22;7263;49.418;11.064;2023-08-30T13:46:26;19.70;99.90
14359;DHT22;7263;49.418;11.064;2023-08-30T13:49:08;19.60;99.90
14359;DHT22;7263;49.418;11.064;2023-08-30T13:51:52;19.60;99.90
14359;DHT22;7263;49.418;11.064;2023-08-30T13:54:21;19.30;99.90
14359;DHT22;7263;49.418;11.064;2023-08-30T13:56:51;19.20;99.90
14359;DHT22;7263;49.418;11.064;2023-08-30T13:59:25;19.10;99.90
14359;DHT22;7263;49.418;11.064;2023-08-30T14:01:59;19.00;99.90
14359;DHT22;7263;49.418;11.064;2023-08-30T14:04:26;18.90;99.90
14359;DHT22;7263;49.418;11.064;2023-08-30T14:06:56;18.80;99.90
14359;DHT22;7263;49.418;11.064;2023-08-30T14:09:30;18.80;99.90
14359;DHT22;7263;49.418;11.064;2023-08-30T14:12:02;18.80;99.90
14359;DHT22;7263;49.418;11.064;2023-08-30T14:14:33;18.80;99.90
14359;DHT22;7263;49.418;11.064;2023-08-30T14:17:03;18.80;99.90
14359;DHT22;7263;49.418;11.064;2023-08-30T14:19:40;19.00;99.90
14359;DHT22;7263;49.418;11.064;2023-08-30T14:22:09;19.50;99.90
14359;DHT22;7263;49.418;11.064;2023-08-30T14:24:37;19.50;99.90
14359;DHT22;7263;49.418;11.064;2023-08-30T14:27:07;19.70;99.90
14359;DHT22;7263;49.418;11.064;2023-08-30T14:29:34;19.80;99.90
14359;DHT22;7263;49.418;11.064;2023-08-30T14:32:03;19.70;99.90
14359;DHT22;7263;49.418;11.064;2023-08-30T14:34:30;19.80;99.90
14359;DHT22;7263;49.418;11.064;2023-08-30T14:36:59;19.90;99.90
14359;DHT22;7263;49.418;11.064;2023-08-30T14:39:26;20.00;99.90
14359;DHT22;7263;49.418;11.064;2023-08-30T14:41:54;20.10;99.90
14359;DHT22;7263;49.418;11.064;2023-08-30T14:44:23;20.20;99.90
14359;DHT22;7263;49.418;11.064;2023-08-30T14:46:51;20.10;99.90
14359;DHT22;7263;49.418;11.064;2023-08-30T14:49:21;20.00;99.90
14359;DHT22;7263;49.418;11.064;2023-08-30T14:51:47;19.90;99.90
14359;DHT22;7263;49.418;11.064;2023-08-30T14:54:17;19.90;99.90
14359;DHT22;7263;49.418;11.064;2023-08-30T14:56:46;20.00;99.90
14359;DHT22;7263;49.418;11.064;2023-08-30T14:59:16;20.00;99.90
14359;DHT22;7263;49.418;11.064;2023-08-30T15:01:52;19.90;99.90
14359;DHT22;7263;49.418;11.064;2023-08-30T15:04:26;20.00;99.90
14359;DHT22;7263;49.418;11.064;2023-08-30T15:07:04;20.00;99.90
14359;DHT22;7263;49.418;11.064;2023-08-30T15:09:39;20.00;99.90
14359;DHT22;7263;49.418;11.064;2023-08-30T15:12:11;19.90;99.90
14359;DHT22;7263;49.418;11.064;2023-08-30T15:14:44;19.90;99.90
14359;DHT22;7263;49.418;11.064;2023-08-30T15:17:17;19.90;99.90
14359;DHT22;7263;49.418;11.064;2023-08-30T15:19:43;19.90;99.90
14359;DHT22;7263;49.418;11.064;2023-08-30T15:22:13;19.90;99.90
14359;DHT22;7263;49.418;11.064;2023-08-30T15:24:43;19.90;99.90
14359;DHT22;7263;49.418;11.064;2023-08-30T15:27:10;19.80;99.90
14359;DHT22;7263;49.418;11.064;2023-08-30T15:29:44;19.80;99.90
14359;DHT22;7263;49.418;11.064;2023-08-30T15:32:13;19.70;99.90
14359;DHT22;7263;49.418;11.064;2023-08-30T15:34:40;19.70;99.90
14359;DHT22;7263;49.418;11.064;2023-08-30T15:37:07;19.70;99.90
14359;DHT22;7263;49.418;11.064;2023-08-30T15:39:41;19.80;99.90
14359;DHT22;7263;49.418;11.064;2023-08-30T15:42:10;19.60;99.90
14359;DHT22;7263;49.418;11.064;2023-08-30T15:44:37;19.60;99.90
14359;DHT22;7263;49.418;11.064;2023-08-30T15:47:12;19.50;99.90
14359;DHT22;7263;49.418;11.064;2023-08-30T15:49:45;19.50;99.90
14359;DHT22;7263;49.418;11.064;2023-08-30T15:52:20;19.50;99.90
14359;DHT22;7263;49.418;11.064;2023-08-30T15:54:47;19.50;99.90
14359;DHT22;7263;49.418;11.064;2023-08-30T15:57:14;19.50;99.90